Список аэропортов
Фактическая погода:

25 июня, 11:30
Температура: +28°C (+28.0*)
Ветер: северный 2 м/с
Давление: *763 мм
Без существ. явл.
Время (МСК)Темп. СВетерВлажностьДавлениеОблачностьОсадки
09:00+20С, 3 м/с66%1016 гПаоблачно
10:00+22СВ, 3 м/с58%1016 гПаоблачно
11:00+24СВ, 1 м/с49%1015 гПаоблачно
12:00+27Штиль 41%1015 гПаоблачно
13:00+30Ю, 1 м/с30%1014 гПаоблачно
14:00+31Ю, 3 м/с24%1014 гПаоблачно
15:00+34Ю, 3 м/с20%1013 гПас прояснениями
16:00+34ЮВ, 3 м/с18%1011 гПас прояснениями
17:00+35ЮВ, 4 м/с18%1010 гПас прояснениями
18:00+35ЮВ, 4 м/с18%1009 гПас прояснениями
19:00+36ЮВ, 4 м/с18%1008 гПас прояснениями
20:00+29ЮЗ, 4 м/с40%1010 гПаоблачнодождь
21:00+27СЗ, 3 м/с56%1009 гПаоблачнодождь
22:00+26С, 2 м/с66%1009 гПаоблачнодождь
23:00+25СВ, 2 м/с74%1010 гПаоблачнодождь
26 июня
00:00+24С, 2 м/с77%1010 гПаоблачнодождь
01:00+23С, 2 м/с82%1010 гПаясно
02:00+22СЗ, 1 м/с86%1010 гПаясно
03:00+21ЮЗ, 5 м/с87%1011 гПамалооблачно
04:00+20ЮЗ, 3 м/с89%1011 гПамалооблачносл. дождь
05:00+19Ю, 3 м/с91%1011 гПаясно
06:00+18Ю, 2 м/с92%1011 гПамалооблачно
07:00+17Ю, 2 м/с92%1011 гПаясно
08:00+16Ю, 2 м/с92%1012 гПаясно
09:00+17Ю, 2 м/с90%1012 гПаясно
10:00+18ЮЗ, 3 м/с88%1012 гПас прояснениями
11:00+20ЮЗ, 3 м/с81%1012 гПаясно
12:00+22ЮЗ, 4 м/с70%1012 гПаясно
13:00+24ЮЗ, 4 м/с60%1012 гПаясно
14:00+25ЮЗ, 5 м/с50%1011 гПаясно
15:00+26ЮЗ, 5 м/с41%1011 гПаясно
16:00+27ЮЗ, 6 м/с38%1011 гПаясно
17:00+28ЮЗ, 6 м/с36%1011 гПаясно
18:00+28ЮЗ, 5 м/с34%1010 гПаясно
19:00+28ЮЗ, 5 м/с32%1010 гПаясно
20:00+28ЮЗ, 4 м/с32%1010 гПаясно
21:00+28ЮЗ, 4 м/с33%1010 гПаясно
22:00+26З, 3 м/с36%1010 гПаясно
23:00+24З, 2 м/с45%1011 гПаясно
27 июня
00:00+22СЗ, 2 м/с54%1011 гПаясно
01:00+20СЗ, 2 м/с58%1011 гПаясно
02:00+18С, 1 м/с64%1011 гПаясно
03:00+17В, 1 м/с67%1011 гПаясно
04:00+16Штиль 73%1011 гПаясно
05:00+15З, 1 м/с75%1011 гПаясно
06:00+14СЗ, 1 м/с76%1011 гПаясно
07:00+13СЗ, 1 м/с79%1012 гПаясно
08:00+12СЗ, 1 м/с82%1012 гПаясно
09:00+13Штиль 79%1012 гПас прояснениями